sensor_id;sensor_type;location;lat;lon;timestamp;P1;durP1;ratioP1;P2;durP2;ratioP2
17812;SDS011;9030;50.792;8.320;2022-07-05T00:00:13;5.00;;;2.03;;
17812;SDS011;9030;50.792;8.320;2022-07-05T00:02:41;2.95;;;1.88;;
17812;SDS011;9030;50.792;8.320;2022-07-05T00:05:09;2.55;;;1.70;;
17812;SDS011;9030;50.792;8.320;2022-07-05T00:07:36;3.88;;;1.98;;
17812;SDS011;9030;50.792;8.320;2022-07-05T00:10:03;5.88;;;1.63;;
17812;SDS011;9030;50.792;8.320;2022-07-05T00:12:32;4.20;;;1.67;;
17812;SDS011;9030;50.792;8.320;2022-07-05T00:14:59;7.93;;;2.03;;
17812;SDS011;9030;50.792;8.320;2022-07-05T00:17:26;4.03;;;1.63;;
17812;SDS011;9030;50.792;8.320;2022-07-05T00:19:53;7.05;;;2.28;;
17812;SDS011;9030;50.792;8.320;2022-07-05T00:22:21;4.70;;;2.03;;
17812;SDS011;9030;50.792;8.320;2022-07-05T00:24:48;4.97;;;1.90;;
17812;SDS011;9030;50.792;8.320;2022-07-05T00:27:15;8.07;;;2.67;;
17812;SDS011;9030;50.792;8.320;2022-07-05T00:29:42;5.50;;;2.00;;
17812;SDS011;9030;50.792;8.320;2022-07-05T00:32:09;6.63;;;2.35;;
17812;SDS011;9030;50.792;8.320;2022-07-05T00:34:36;8.23;;;3.25;;
17812;SDS011;9030;50.792;8.320;2022-07-05T00:37:03;2.65;;;1.70;;
17812;SDS011;9030;50.792;8.320;2022-07-05T00:39:31;8.50;;;2.67;;
17812;SDS011;9030;50.792;8.320;2022-07-05T00:41:58;5.72;;;2.13;;
17812;SDS011;9030;50.792;8.320;2022-07-05T00:44:30;6.32;;;2.53;;
17812;SDS011;9030;50.792;8.320;2022-07-05T00:47:00;6.85;;;2.55;;
17812;SDS011;9030;50.792;8.320;2022-07-05T00:49:27;8.07;;;2.13;;
17812;SDS011;9030;50.792;8.320;2022-07-05T00:51:54;4.53;;;2.22;;
17812;SDS011;9030;50.792;8.320;2022-07-05T00:54:21;3.17;;;1.88;;
17812;SDS011;9030;50.792;8.320;2022-07-05T00:56:49;4.05;;;2.08;;
17812;SDS011;9030;50.792;8.320;2022-07-05T00:59:17;4.10;;;2.13;;
17812;SDS011;9030;50.792;8.320;2022-07-05T01:01:44;5.80;;;2.05;;
17812;SDS011;9030;50.792;8.320;2022-07-05T01:04:10;4.53;;;2.72;;
17812;SDS011;9030;50.792;8.320;2022-07-05T01:06:38;5.13;;;2.63;;
17812;SDS011;9030;50.792;8.320;2022-07-05T01:09:07;5.00;;;2.45;;
17812;SDS011;9030;50.792;8.320;2022-07-05T01:11:37;6.90;;;3.50;;
17812;SDS011;9030;50.792;8.320;2022-07-05T01:14:06;6.57;;;2.83;;
17812;SDS011;9030;50.792;8.320;2022-07-05T01:16:36;9.55;;;2.80;;
17812;SDS011;9030;50.792;8.320;2022-07-05T01:19:04;6.95;;;2.97;;
17812;SDS011;9030;50.792;8.320;2022-07-05T01:21:32;5.70;;;2.43;;
17812;SDS011;9030;50.792;8.320;2022-07-05T01:24:05;5.18;;;2.58;;
17812;SDS011;9030;50.792;8.320;2022-07-05T01:26:32;10.45;;;2.88;;
17812;SDS011;9030;50.792;8.320;2022-07-05T01:28:59;8.23;;;3.03;;
17812;SDS011;9030;50.792;8.320;2022-07-05T01:31:26;6.83;;;2.90;;
17812;SDS011;9030;50.792;8.320;2022-07-05T01:33:53;7.35;;;3.58;;
17812;SDS011;9030;50.792;8.320;2022-07-05T01:36:20;6.85;;;3.13;;
17812;SDS011;9030;50.792;8.320;2022-07-05T01:38:47;7.05;;;3.35;;
17812;SDS011;9030;50.792;8.320;2022-07-05T01:41:17;5.38;;;2.88;;
17812;SDS011;9030;50.792;8.320;2022-07-05T01:43:44;5.07;;;3.17;;
17812;SDS011;9030;50.792;8.320;2022-07-05T01:46:10;8.33;;;3.40;;
17812;SDS011;9030;50.792;8.320;2022-07-05T01:48:39;6.97;;;2.65;;
17812;SDS011;9030;50.792;8.320;2022-07-05T01:51:07;9.55;;;3.58;;
17812;SDS011;9030;50.792;8.320;2022-07-05T01:53:44;5.30;;;3.07;;
17812;SDS011;9030;50.792;8.320;2022-07-05T01:56:12;7.00;;;4.13;;
17812;SDS011;9030;50.792;8.320;2022-07-05T01:58:41;6.70;;;3.37;;
17812;SDS011;9030;50.792;8.320;2022-07-05T02:01:08;9.50;;;3.50;;
17812;SDS011;9030;50.792;8.320;2022-07-05T02:03:35;9.47;;;4.17;;
17812;SDS011;9030;50.792;8.320;2022-07-05T02:06:03;4.87;;;3.17;;
17812;SDS011;9030;50.792;8.320;2022-07-05T02:08:31;7.37;;;3.33;;
17812;SDS011;9030;50.792;8.320;2022-07-05T02:10:57;10.80;;;3.87;;
17812;SDS011;9030;50.792;8.320;2022-07-05T02:13:24;9.50;;;3.33;;
17812;SDS011;9030;50.792;8.320;2022-07-05T02:15:53;8.13;;;3.70;;
17812;SDS011;9030;50.792;8.320;2022-07-05T02:18:20;13.30;;;4.03;;
17812;SDS011;9030;50.792;8.320;2022-07-05T02:20:47;9.53;;;3.80;;
17812;SDS011;9030;50.792;8.320;2022-07-05T02:23:13;8.47;;;3.63;;
17812;SDS011;9030;50.792;8.320;2022-07-05T02:25:40;8.73;;;4.20;;
17812;SDS011;9030;50.792;8.320;2022-07-05T02:28:07;7.37;;;3.43;;
17812;SDS011;9030;50.792;8.320;2022-07-05T02:30:34;4.53;;;2.97;;
17812;SDS011;9030;50.792;8.320;2022-07-05T02:33:02;10.10;;;3.97;;
17812;SDS011;9030;50.792;8.320;2022-07-05T02:35:29;10.03;;;4.40;;
17812;SDS011;9030;50.792;8.320;2022-07-05T02:37:56;7.30;;;3.80;;
17812;SDS011;9030;50.792;8.320;2022-07-05T02:40:23;12.33;;;3.97;;
17812;SDS011;9030;50.792;8.320;2022-07-05T02:42:50;6.13;;;4.67;;
17812;SDS011;9030;50.792;8.320;2022-07-05T02:45:16;9.57;;;4.17;;
17812;SDS011;9030;50.792;8.320;2022-07-05T02:47:43;8.37;;;4.63;;
17812;SDS011;9030;50.792;8.320;2022-07-05T02:50:11;6.77;;;3.63;;
17812;SDS011;9030;50.792;8.320;2022-07-05T02:52:38;8.10;;;3.93;;
17812;SDS011;9030;50.792;8.320;2022-07-05T02:55:05;7.80;;;4.60;;
17812;SDS011;9030;50.792;8.320;2022-07-05T02:57:33;10.33;;;4.40;;
17812;SDS011;9030;50.792;8.320;2022-07-05T03:00:02;7.63;;;4.77;;
17812;SDS011;9030;50.792;8.320;2022-07-05T03:02:31;5.70;;;3.63;;
17812;SDS011;9030;50.792;8.320;2022-07-05T03:04:58;8.00;;;4.20;;
17812;SDS011;9030;50.792;8.320;2022-07-05T03:07:26;6.43;;;4.57;;
17812;SDS011;9030;50.792;8.320;2022-07-05T03:09:53;8.47;;;4.03;;
17812;SDS011;9030;50.792;8.320;2022-07-05T03:12:19;10.93;;;4.00;;
17812;SDS011;9030;50.792;8.320;2022-07-05T03:14:46;6.97;;;3.53;;
17812;SDS011;9030;50.792;8.320;2022-07-05T03:17:13;7.43;;;4.83;;
17812;SDS011;9030;50.792;8.320;2022-07-05T03:19:40;11.60;;;5.97;;
17812;SDS011;9030;50.792;8.320;2022-07-05T03:22:07;8.80;;;4.10;;
17812;SDS011;9030;50.792;8.320;2022-07-05T03:24:35;6.80;;;3.80;;
17812;SDS011;9030;50.792;8.320;2022-07-05T03:27:01;7.43;;;4.77;;
17812;SDS011;9030;50.792;8.320;2022-07-05T03:29:28;10.53;;;3.93;;
17812;SDS011;9030;50.792;8.320;2022-07-05T03:31:55;7.43;;;4.63;;
17812;SDS011;9030;50.792;8.320;2022-07-05T03:34:22;8.67;;;5.27;;
17812;SDS011;9030;50.792;8.320;2022-07-05T03:36:49;10.53;;;5.70;;
17812;SDS011;9030;50.792;8.320;2022-07-05T03:39:15;7.83;;;4.97;;
17812;SDS011;9030;50.792;8.320;2022-07-05T03:41:44;10.67;;;6.07;;
17812;SDS011;9030;50.792;8.320;2022-07-05T03:44:11;7.57;;;5.30;;
17812;SDS011;9030;50.792;8.320;2022-07-05T03:46:38;10.60;;;4.80;;
17812;SDS011;9030;50.792;8.320;2022-07-05T03:49:05;6.97;;;3.77;;
17812;SDS011;9030;50.792;8.320;2022-07-05T03:51:32;9.97;;;4.83;;
17812;SDS011;9030;50.792;8.320;2022-07-05T03:53:58;11.20;;;5.43;;
17812;SDS011;9030;50.792;8.320;2022-07-05T03:56:25;6.03;;;4.03;;
17812;SDS011;9030;50.792;8.320;2022-07-05T03:58:53;6.30;;;3.67;;
17812;SDS011;9030;50.792;8.320;2022-07-05T04:01:20;8.93;;;5.07;;
17812;SDS011;9030;50.792;8.320;2022-07-05T04:03:47;10.00;;;4.73;;
17812;SDS011;9030;50.792;8.320;2022-07-05T04:06:14;9.17;;;4.57;;
17812;SDS011;9030;50.792;8.320;2022-07-05T04:08:41;6.20;;;3.93;;
17812;SDS011;9030;50.792;8.320;2022-07-05T04:11:08;8.63;;;4.53;;
17812;SDS011;9030;50.792;8.320;2022-07-05T04:13:37;10.20;;;4.67;;
17812;SDS011;9030;50.792;8.320;2022-07-05T04:16:06;8.43;;;4.33;;
17812;SDS011;9030;50.792;8.320;2022-07-05T04:18:34;10.17;;;4.50;;
17812;SDS011;9030;50.792;8.320;2022-07-05T04:21:01;8.30;;;4.90;;
17812;SDS011;9030;50.792;8.320;2022-07-05T04:23:28;10.05;;;4.53;;
17812;SDS011;9030;50.792;8.320;2022-07-05T04:25:55;8.17;;;4.87;;
17812;SDS011;9030;50.792;8.320;2022-07-05T04:28:22;8.15;;;4.57;;
17812;SDS011;9030;50.792;8.320;2022-07-05T04:30:48;6.50;;;4.03;;
17812;SDS011;9030;50.792;8.320;2022-07-05T04:33:17;7.55;;;3.80;;
17812;SDS011;9030;50.792;8.320;2022-07-05T04:35:43;9.90;;;4.50;;
17812;SDS011;9030;50.792;8.320;2022-07-05T04:38:12;7.35;;;4.43;;
17812;SDS011;9030;50.792;8.320;2022-07-05T04:40:39;7.03;;;4.22;;
17812;SDS011;9030;50.792;8.320;2022-07-05T04:43:24;9.43;;;4.85;;
17812;SDS011;9030;50.792;8.320;2022-07-05T04:45:54;6.82;;;3.63;;
17812;SDS011;9030;50.792;8.320;2022-07-05T04:48:23;9.30;;;3.92;;
17812;SDS011;9030;50.792;8.320;2022-07-05T04:50:49;8.95;;;3.70;;
17812;SDS011;9030;50.792;8.320;2022-07-05T04:53:17;5.32;;;3.55;;
17812;SDS011;9030;50.792;8.320;2022-07-05T04:55:47;7.90;;;4.72;;
17812;SDS011;9030;50.792;8.320;2022-07-05T04:58:15;10.38;;;4.78;;
17812;SDS011;9030;50.792;8.320;2022-07-05T05:00:42;7.78;;;4.45;;
17812;SDS011;9030;50.792;8.320;2022-07-05T05:03:09;7.50;;;4.22;;
17812;SDS011;9030;50.792;8.320;2022-07-05T05:05:37;8.13;;;4.45;;
17812;SDS011;9030;50.792;8.320;2022-07-05T05:08:04;11.07;;;4.30;;
17812;SDS011;9030;50.792;8.320;2022-07-05T05:10:31;8.95;;;4.13;;
17812;SDS011;9030;50.792;8.320;2022-07-05T05:12:58;8.27;;;4.00;;
17812;SDS011;9030;50.792;8.320;2022-07-05T05:15:25;9.55;;;4.93;;
17812;SDS011;9030;50.792;8.320;2022-07-05T05:17:55;9.48;;;4.90;;
17812;SDS011;9030;50.792;8.320;2022-07-05T05:20:24;10.85;;;5.75;;
17812;SDS011;9030;50.792;8.320;2022-07-05T05:23:02;10.57;;;4.78;;
17812;SDS011;9030;50.792;8.320;2022-07-05T05:25:32;8.13;;;5.40;;
17812;SDS011;9030;50.792;8.320;2022-07-05T05:28:00;15.63;;;6.07;;
17812;SDS011;9030;50.792;8.320;2022-07-05T05:30:28;9.18;;;5.30;;
17812;SDS011;9030;50.792;8.320;2022-07-05T05:32:55;10.80;;;5.75;;
17812;SDS011;9030;50.792;8.320;2022-07-05T05:35:22;11.88;;;5.63;;
17812;SDS011;9030;50.792;8.320;2022-07-05T05:37:50;9.88;;;5.35;;
17812;SDS011;9030;50.792;8.320;2022-07-05T05:40:19;7.85;;;4.75;;
17812;SDS011;9030;50.792;8.320;2022-07-05T05:42:46;9.70;;;5.85;;
17812;SDS011;9030;50.792;8.320;2022-07-05T05:45:13;8.38;;;4.85;;
17812;SDS011;9030;50.792;8.320;2022-07-05T05:47:47;7.63;;;4.28;;
17812;SDS011;9030;50.792;8.320;2022-07-05T05:50:18;12.68;;;6.43;;
17812;SDS011;9030;50.792;8.320;2022-07-05T05:52:46;8.48;;;5.13;;
17812;SDS011;9030;50.792;8.320;2022-07-05T05:55:13;8.63;;;5.35;;
17812;SDS011;9030;50.792;8.320;2022-07-05T05:57:41;11.25;;;5.93;;
17812;SDS011;9030;50.792;8.320;2022-07-05T06:00:09;8.20;;;4.82;;
17812;SDS011;9030;50.792;8.320;2022-07-05T06:02:37;8.88;;;4.78;;
17812;SDS011;9030;50.792;8.320;2022-07-05T06:05:04;11.38;;;4.32;;
17812;SDS011;9030;50.792;8.320;2022-07-05T06:07:31;8.93;;;5.00;;
17812;SDS011;9030;50.792;8.320;2022-07-05T06:10:09;8.55;;;4.80;;
17812;SDS011;9030;50.792;8.320;2022-07-05T06:12:36;13.07;;;4.85;;
17812;SDS011;9030;50.792;8.320;2022-07-05T06:15:05;9.77;;;4.13;;
17812;SDS011;9030;50.792;8.320;2022-07-05T06:17:35;10.15;;;4.88;;
17812;SDS011;9030;50.792;8.320;2022-07-05T06:20:03;8.48;;;3.88;;
17812;SDS011;9030;50.792;8.320;2022-07-05T06:22:34;8.98;;;4.75;;
17812;SDS011;9030;50.792;8.320;2022-07-05T06:25:04;6.13;;;3.78;;
17812;SDS011;9030;50.792;8.320;2022-07-05T06:27:37;5.93;;;3.40;;
17812;SDS011;9030;50.792;8.320;2022-07-05T06:30:12;11.80;;;4.95;;
17812;SDS011;9030;50.792;8.320;2022-07-05T06:32:48;9.48;;;4.35;;
17812;SDS011;9030;50.792;8.320;2022-07-05T06:35:18;11.85;;;4.15;;
17812;SDS011;9030;50.792;8.320;2022-07-05T06:37:46;8.50;;;3.80;;
17812;SDS011;9030;50.792;8.320;2022-07-05T06:40:17;11.20;;;4.07;;
17812;SDS011;9030;50.792;8.320;2022-07-05T06:42:44;6.88;;;3.28;;
17812;SDS011;9030;50.792;8.320;2022-07-05T06:45:13;11.13;;;3.88;;
17812;SDS011;9030;50.792;8.320;2022-07-05T06:47:39;9.60;;;3.08;;
17812;SDS011;9030;50.792;8.320;2022-07-05T06:50:09;11.05;;;3.70;;
17812;SDS011;9030;50.792;8.320;2022-07-05T06:52:37;10.15;;;3.47;;
17812;SDS011;9030;50.792;8.320;2022-07-05T06:55:05;5.18;;;2.60;;
17812;SDS011;9030;50.792;8.320;2022-07-05T06:57:32;7.00;;;3.45;;
17812;SDS011;9030;50.792;8.320;2022-07-05T06:59:59;10.18;;;2.95;;
17812;SDS011;9030;50.792;8.320;2022-07-05T07:02:28;4.68;;;2.55;;
17812;SDS011;9030;50.792;8.320;2022-07-05T07:04:55;9.40;;;3.90;;
17812;SDS011;9030;50.792;8.320;2022-07-05T07:07:21;9.70;;;3.47;;
17812;SDS011;9030;50.792;8.320;2022-07-05T07:10:06;7.53;;;3.20;;
17812;SDS011;9030;50.792;8.320;2022-07-05T07:12:33;9.75;;;3.10;;
17812;SDS011;9030;50.792;8.320;2022-07-05T07:15:00;7.82;;;2.55;;
17812;SDS011;9030;50.792;8.320;2022-07-05T07:17:28;9.07;;;2.90;;
17812;SDS011;9030;50.792;8.320;2022-07-05T07:19:55;6.30;;;2.80;;
17812;SDS011;9030;50.792;8.320;2022-07-05T07:22:21;9.60;;;3.10;;
17812;SDS011;9030;50.792;8.320;2022-07-05T07:24:48;8.05;;;2.60;;
17812;SDS011;9030;50.792;8.320;2022-07-05T07:27:15;8.40;;;2.67;;
17812;SDS011;9030;50.792;8.320;2022-07-05T07:29:42;5.07;;;2.63;;
17812;SDS011;9030;50.792;8.320;2022-07-05T07:32:09;6.07;;;2.60;;
17812;SDS011;9030;50.792;8.320;2022-07-05T07:34:37;10.10;;;2.60;;
17812;SDS011;9030;50.792;8.320;2022-07-05T07:37:04;5.63;;;2.53;;
17812;SDS011;9030;50.792;8.320;2022-07-05T07:39:33;7.75;;;2.80;;
17812;SDS011;9030;50.792;8.320;2022-07-05T07:42:01;8.10;;;3.10;;
17812;SDS011;9030;50.792;8.320;2022-07-05T07:44:27;11.18;;;4.57;;
17812;SDS011;9030;50.792;8.320;2022-07-05T07:46:57;9.73;;;3.00;;
17812;SDS011;9030;50.792;8.320;2022-07-05T07:49:24;7.68;;;2.83;;
17812;SDS011;9030;50.792;8.320;2022-07-05T07:51:52;7.15;;;3.20;;
17812;SDS011;9030;50.792;8.320;2022-07-05T07:54:19;7.55;;;3.13;;
17812;SDS011;9030;50.792;8.320;2022-07-05T07:56:45;7.22;;;3.00;;
17812;SDS011;9030;50.792;8.320;2022-07-05T07:59:12;11.10;;;3.45;;
17812;SDS011;9030;50.792;8.320;2022-07-05T08:01:39;10.55;;;3.58;;
17812;SDS011;9030;50.792;8.320;2022-07-05T08:04:06;7.32;;;3.28;;
17812;SDS011;9030;50.792;8.320;2022-07-05T08:06:33;7.60;;;3.85;;
17812;SDS011;9030;50.792;8.320;2022-07-05T08:09:01;9.15;;;3.97;;
17812;SDS011;9030;50.792;8.320;2022-07-05T08:11:28;11.25;;;3.42;;
17812;SDS011;9030;50.792;8.320;2022-07-05T08:13:54;8.65;;;3.75;;
17812;SDS011;9030;50.792;8.320;2022-07-05T08:16:21;9.30;;;3.88;;
17812;SDS011;9030;50.792;8.320;2022-07-05T08:18:48;9.20;;;3.38;;
17812;SDS011;9030;50.792;8.320;2022-07-05T08:21:32;12.50;;;4.20;;
17812;SDS011;9030;50.792;8.320;2022-07-05T08:24:04;8.60;;;3.13;;
17812;SDS011;9030;50.792;8.320;2022-07-05T08:26:33;5.70;;;3.42;;
17812;SDS011;9030;50.792;8.320;2022-07-05T08:29:01;8.48;;;4.40;;
17812;SDS011;9030;50.792;8.320;2022-07-05T08:31:29;7.53;;;3.70;;
17812;SDS011;9030;50.792;8.320;2022-07-05T08:33:57;6.57;;;4.00;;
17812;SDS011;9030;50.792;8.320;2022-07-05T08:36:24;9.68;;;4.30;;
17812;SDS011;9030;50.792;8.320;2022-07-05T08:38:51;8.80;;;3.63;;
17812;SDS011;9030;50.792;8.320;2022-07-05T08:41:19;7.78;;;3.97;;
17812;SDS011;9030;50.792;8.320;2022-07-05T08:43:47;11.05;;;4.80;;
17812;SDS011;9030;50.792;8.320;2022-07-05T08:46:15;9.07;;;3.55;;
17812;SDS011;9030;50.792;8.320;2022-07-05T08:48:47;13.82;;;6.15;;
17812;SDS011;9030;50.792;8.320;2022-07-05T08:51:17;10.15;;;5.05;;
17812;SDS011;9030;50.792;8.320;2022-07-05T08:53:49;10.30;;;3.75;;
17812;SDS011;9030;50.792;8.320;2022-07-05T08:56:18;11.38;;;5.10;;
17812;SDS011;9030;50.792;8.320;2022-07-05T08:58:45;12.07;;;5.68;;
17812;SDS011;9030;50.792;8.320;2022-07-05T09:01:14;12.40;;;5.30;;
17812;SDS011;9030;50.792;8.320;2022-07-05T09:03:42;13.40;;;5.95;;
17812;SDS011;9030;50.792;8.320;2022-07-05T09:06:10;8.63;;;4.75;;
17812;SDS011;9030;50.792;8.320;2022-07-05T09:08:39;12.48;;;4.72;;
17812;SDS011;9030;50.792;8.320;2022-07-05T09:11:07;10.43;;;5.93;;
17812;SDS011;9030;50.792;8.320;2022-07-05T09:13:37;9.73;;;4.57;;
17812;SDS011;9030;50.792;8.320;2022-07-05T09:16:05;10.52;;;4.88;;
17812;SDS011;9030;50.792;8.320;2022-07-05T09:18:39;7.72;;;4.93;;
17812;SDS011;9030;50.792;8.320;2022-07-05T09:21:13;10.32;;;5.65;;
17812;SDS011;9030;50.792;8.320;2022-07-05T09:23:41;11.85;;;4.03;;
17812;SDS011;9030;50.792;8.320;2022-07-05T09:26:12;11.20;;;5.45;;
17812;SDS011;9030;50.792;8.320;2022-07-05T09:28:52;12.43;;;5.60;;
17812;SDS011;9030;50.792;8.320;2022-07-05T09:31:28;8.10;;;3.60;;
17812;SDS011;9030;50.792;8.320;2022-07-05T09:34:06;14.30;;;4.28;;
17812;SDS011;9030;50.792;8.320;2022-07-05T09:39:36;8.07;;;3.85;;
17812;SDS011;9030;50.792;8.320;2022-07-05T09:42:11;11.82;;;4.72;;
17812;SDS011;9030;50.792;8.320;2022-07-05T09:44:44;6.93;;;3.85;;
17812;SDS011;9030;50.792;8.320;2022-07-05T09:47:13;8.60;;;4.38;;
17812;SDS011;9030;50.792;8.320;2022-07-05T09:49:41;7.90;;;5.10;;
17812;SDS011;9030;50.792;8.320;2022-07-05T09:52:10;12.77;;;6.22;;
17812;SDS011;9030;50.792;8.320;2022-07-05T09:54:37;8.77;;;4.80;;
17812;SDS011;9030;50.792;8.320;2022-07-05T09:57:04;11.98;;;5.22;;
17812;SDS011;9030;50.792;8.320;2022-07-05T09:59:32;10.25;;;4.63;;
17812;SDS011;9030;50.792;8.320;2022-07-05T10:02:03;14.40;;;5.03;;
17812;SDS011;9030;50.792;8.320;2022-07-05T10:04:30;10.85;;;4.60;;
17812;SDS011;9030;50.792;8.320;2022-07-05T10:06:57;8.80;;;3.83;;
17812;SDS011;9030;50.792;8.320;2022-07-05T10:09:24;8.18;;;4.38;;
17812;SDS011;9030;50.792;8.320;2022-07-05T10:11:51;10.77;;;4.35;;
17812;SDS011;9030;50.792;8.320;2022-07-05T10:14:19;9.25;;;3.58;;
17812;SDS011;9030;50.792;8.320;2022-07-05T10:16:52;9.23;;;3.70;;
17812;SDS011;9030;50.792;8.320;2022-07-05T10:19:26;8.30;;;3.05;;
17812;SDS011;9030;50.792;8.320;2022-07-05T10:21:57;9.68;;;3.35;;
17812;SDS011;9030;50.792;8.320;2022-07-05T10:24:24;8.18;;;3.40;;
17812;SDS011;9030;50.792;8.320;2022-07-05T10:26:55;7.53;;;3.40;;
17812;SDS011;9030;50.792;8.320;2022-07-05T10:29:22;5.60;;;2.70;;
17812;SDS011;9030;50.792;8.320;2022-07-05T10:31:50;7.90;;;3.63;;
17812;SDS011;9030;50.792;8.320;2022-07-05T10:34:17;6.40;;;3.13;;
17812;SDS011;9030;50.792;8.320;2022-07-05T10:36:46;11.40;;;3.95;;
17812;SDS011;9030;50.792;8.320;2022-07-05T10:39:13;6.47;;;3.28;;
17812;SDS011;9030;50.792;8.320;2022-07-05T10:41:41;9.95;;;4.13;;
17812;SDS011;9030;50.792;8.320;2022-07-05T10:44:09;6.78;;;3.25;;
17812;SDS011;9030;50.792;8.320;2022-07-05T10:46:36;8.20;;;4.05;;
17812;SDS011;9030;50.792;8.320;2022-07-05T10:49:09;9.25;;;3.42;;
17812;SDS011;9030;50.792;8.320;2022-07-05T10:51:40;9.70;;;4.38;;
17812;SDS011;9030;50.792;8.320;2022-07-05T10:54:09;9.73;;;4.25;;
17812;SDS011;9030;50.792;8.320;2022-07-05T10:56:36;12.60;;;5.80;;
17812;SDS011;9030;50.792;8.320;2022-07-05T10:59:04;8.55;;;5.53;;
17812;SDS011;9030;50.792;8.320;2022-07-05T11:01:35;11.75;;;5.28;;
17812;SDS011;9030;50.792;8.320;2022-07-05T11:04:07;11.43;;;4.60;;
17812;SDS011;9030;50.792;8.320;2022-07-05T11:06:55;11.27;;;5.35;;
17812;SDS011;9030;50.792;8.320;2022-07-05T11:09:23;10.93;;;4.97;;
17812;SDS011;9030;50.792;8.320;2022-07-05T11:12:06;7.22;;;3.72;;
17812;SDS011;9030;50.792;8.320;2022-07-05T11:14:37;7.28;;;3.53;;
17812;SDS011;9030;50.792;8.320;2022-07-05T11:17:13;6.88;;;3.35;;
17812;SDS011;9030;50.792;8.320;2022-07-05T11:20:14;5.95;;;3.85;;
17812;SDS011;9030;50.792;8.320;2022-07-05T11:23:01;11.32;;;4.32;;
17812;SDS011;9030;50.792;8.320;2022-07-05T11:25:34;5.13;;;3.33;;
17812;SDS011;9030;50.792;8.320;2022-07-05T11:28:05;6.95;;;3.10;;
17812;SDS011;9030;50.792;8.320;2022-07-05T11:30:53;8.93;;;3.28;;
17812;SDS011;9030;50.792;8.320;2022-07-05T11:33:25;7.15;;;3.70;;
17812;SDS011;9030;50.792;8.320;2022-07-05T11:35:53;8.07;;;3.92;;
17812;SDS011;9030;50.792;8.320;2022-07-05T11:38:21;7.60;;;4.32;;
17812;SDS011;9030;50.792;8.320;2022-07-05T11:40:49;9.40;;;4.00;;
17812;SDS011;9030;50.792;8.320;2022-07-05T11:43:24;6.53;;;3.65;;
17812;SDS011;9030;50.792;8.320;2022-07-05T11:45:55;8.40;;;3.97;;
17812;SDS011;9030;50.792;8.320;2022-07-05T11:48:22;6.80;;;3.15;;
17812;SDS011;9030;50.792;8.320;2022-07-05T11:50:50;9.75;;;3.17;;
17812;SDS011;9030;50.792;8.320;2022-07-05T11:53:26;8.23;;;2.75;;
17812;SDS011;9030;50.792;8.320;2022-07-05T11:56:01;7.40;;;3.78;;
17812;SDS011;9030;50.792;8.320;2022-07-05T11:58:31;5.47;;;3.42;;
17812;SDS011;9030;50.792;8.320;2022-07-05T12:00:58;10.93;;;3.45;;
17812;SDS011;9030;50.792;8.320;2022-07-05T12:03:26;5.32;;;3.33;;
17812;SDS011;9030;50.792;8.320;2022-07-05T12:05:53;9.63;;;2.88;;
17812;SDS011;9030;50.792;8.320;2022-07-05T12:08:20;11.35;;;3.33;;
17812;SDS011;9030;50.792;8.320;2022-07-05T12:10:47;8.13;;;3.20;;
17812;SDS011;9030;50.792;8.320;2022-07-05T12:13:42;8.10;;;2.65;;
17812;SDS011;9030;50.792;8.320;2022-07-05T12:16:10;7.82;;;3.00;;
17812;SDS011;9030;50.792;8.320;2022-07-05T12:18:48;10.57;;;2.55;;
17812;SDS011;9030;50.792;8.320;2022-07-05T12:21:15;6.57;;;2.72;;
17812;SDS011;9030;50.792;8.320;2022-07-05T12:23:45;4.90;;;2.33;;
17812;SDS011;9030;50.792;8.320;2022-07-05T12:26:12;7.50;;;3.05;;
17812;SDS011;9030;50.792;8.320;2022-07-05T12:28:39;7.45;;;2.50;;
17812;SDS011;9030;50.792;8.320;2022-07-05T12:31:21;9.98;;;3.15;;
17812;SDS011;9030;50.792;8.320;2022-07-05T12:33:49;7.25;;;2.60;;
17812;SDS011;9030;50.792;8.320;2022-07-05T12:36:18;6.57;;;2.80;;
17812;SDS011;9030;50.792;8.320;2022-07-05T12:38:49;3.13;;;1.85;;
17812;SDS011;9030;50.792;8.320;2022-07-05T12:41:44;3.83;;;1.70;;
17812;SDS011;9030;50.792;8.320;2022-07-05T12:44:23;6.68;;;2.80;;
17812;SDS011;9030;50.792;8.320;2022-07-05T12:46:51;7.25;;;2.40;;
17812;SDS011;9030;50.792;8.320;2022-07-05T12:49:29;4.72;;;1.70;;
17812;SDS011;9030;50.792;8.320;2022-07-05T12:52:03;8.05;;;2.45;;
17812;SDS011;9030;50.792;8.320;2022-07-05T12:54:30;5.40;;;2.30;;
17812;SDS011;9030;50.792;8.320;2022-07-05T12:57:14;5.10;;;1.80;;
17812;SDS011;9030;50.792;8.320;2022-07-05T12:59:59;4.90;;;2.20;;
17812;SDS011;9030;50.792;8.320;2022-07-05T13:02:38;4.40;;;1.88;;
17812;SDS011;9030;50.792;8.320;2022-07-05T13:05:07;3.38;;;1.90;;
17812;SDS011;9030;50.792;8.320;2022-07-05T13:07:40;5.72;;;1.80;;
17812;SDS011;9030;50.792;8.320;2022-07-05T13:10:14;3.83;;;2.00;;
17812;SDS011;9030;50.792;8.320;2022-07-05T13:12:42;5.28;;;2.15;;
17812;SDS011;9030;50.792;8.320;2022-07-05T13:15:08;4.32;;;2.22;;
17812;SDS011;9030;50.792;8.320;2022-07-05T13:17:36;6.43;;;1.92;;
17812;SDS011;9030;50.792;8.320;2022-07-05T13:20:04;4.05;;;1.90;;
17812;SDS011;9030;50.792;8.320;2022-07-05T13:22:32;4.75;;;2.20;;
17812;SDS011;9030;50.792;8.320;2022-07-05T13:24:58;4.22;;;2.50;;
17812;SDS011;9030;50.792;8.320;2022-07-05T13:27:25;3.38;;;1.88;;
17812;SDS011;9030;50.792;8.320;2022-07-05T13:29:52;2.22;;;1.70;;
17812;SDS011;9030;50.792;8.320;2022-07-05T13:32:18;7.30;;;2.00;;
17812;SDS011;9030;50.792;8.320;2022-07-05T13:34:46;3.78;;;2.03;;
17812;SDS011;9030;50.792;8.320;2022-07-05T13:37:15;3.97;;;1.75;;
17812;SDS011;9030;50.792;8.320;2022-07-05T13:39:42;7.32;;;2.35;;
17812;SDS011;9030;50.792;8.320;2022-07-05T13:42:08;3.35;;;1.98;;
17812;SDS011;9030;50.792;8.320;2022-07-05T13:44:35;7.70;;;2.13;;
17812;SDS011;9030;50.792;8.320;2022-07-05T13:47:02;3.72;;;2.20;;
17812;SDS011;9030;50.792;8.320;2022-07-05T13:49:30;6.93;;;2.10;;
17812;SDS011;9030;50.792;8.320;2022-07-05T13:51:56;5.15;;;2.28;;
17812;SDS011;9030;50.792;8.320;2022-07-05T13:54:27;7.10;;;2.40;;
17812;SDS011;9030;50.792;8.320;2022-07-05T13:56:54;6.75;;;1.88;;
17812;SDS011;9030;50.792;8.320;2022-07-05T13:59:21;3.88;;;1.90;;
17812;SDS011;9030;50.792;8.320;2022-07-05T14:01:47;2.85;;;1.88;;
17812;SDS011;9030;50.792;8.320;2022-07-05T14:04:14;5.75;;;2.22;;
17812;SDS011;9030;50.792;8.320;2022-07-05T14:06:41;10.10;;;2.28;;
17812;SDS011;9030;50.792;8.320;2022-07-05T14:09:08;5.00;;;1.80;;
17812;SDS011;9030;50.792;8.320;2022-07-05T14:11:36;7.10;;;2.47;;
17812;SDS011;9030;50.792;8.320;2022-07-05T14:14:02;5.18;;;2.03;;
17812;SDS011;9030;50.792;8.320;2022-07-05T14:16:29;5.75;;;2.47;;
17812;SDS011;9030;50.792;8.320;2022-07-05T14:18:56;6.68;;;2.85;;
17812;SDS011;9030;50.792;8.320;2022-07-05T14:21:23;4.55;;;3.10;;
17812;SDS011;9030;50.792;8.320;2022-07-05T14:23:50;6.97;;;2.13;;
17812;SDS011;9030;50.792;8.320;2022-07-05T14:26:17;7.03;;;2.60;;
17812;SDS011;9030;50.792;8.320;2022-07-05T14:28:46;5.25;;;2.78;;
17812;SDS011;9030;50.792;8.320;2022-07-05T14:31:13;4.70;;;2.65;;
17812;SDS011;9030;50.792;8.320;2022-07-05T14:33:40;6.93;;;2.65;;
17812;SDS011;9030;50.792;8.320;2022-07-05T14:36:07;5.60;;;2.65;;
17812;SDS011;9030;50.792;8.320;2022-07-05T14:38:34;10.13;;;3.05;;
17812;SDS011;9030;50.792;8.320;2022-07-05T14:41:00;6.18;;;2.97;;
17812;SDS011;9030;50.792;8.320;2022-07-05T14:43:27;7.70;;;3.25;;
17812;SDS011;9030;50.792;8.320;2022-07-05T14:45:56;4.22;;;2.40;;
17812;SDS011;9030;50.792;8.320;2022-07-05T14:48:22;4.55;;;2.63;;
17812;SDS011;9030;50.792;8.320;2022-07-05T14:50:49;12.77;;;3.00;;
17812;SDS011;9030;50.792;8.320;2022-07-05T14:53:16;9.27;;;2.85;;
17812;SDS011;9030;50.792;8.320;2022-07-05T14:55:44;7.55;;;3.20;;
17812;SDS011;9030;50.792;8.320;2022-07-05T14:58:10;5.20;;;2.80;;
17812;SDS011;9030;50.792;8.320;2022-07-05T15:00:37;6.28;;;2.92;;
17812;SDS011;9030;50.792;8.320;2022-07-05T15:03:05;4.88;;;2.90;;
17812;SDS011;9030;50.792;8.320;2022-07-05T15:05:34;4.45;;;2.75;;
17812;SDS011;9030;50.792;8.320;2022-07-05T15:08:01;7.70;;;2.65;;
17812;SDS011;9030;50.792;8.320;2022-07-05T15:10:28;6.05;;;2.80;;